sensor_id;sensor_type;location;lat;lon;timestamp;P1;durP1;ratioP1;P2;durP2;ratioP2
32760;SDS011;19126;47.472;7.850;2022-08-19T00:01:24;26.70;;;20.00;;
32760;SDS011;19126;47.472;7.850;2022-08-19T00:06:22;22.83;;;18.02;;
32760;SDS011;19126;47.472;7.850;2022-08-19T00:08:49;28.27;;;20.35;;
32760;SDS011;19126;47.472;7.850;2022-08-19T00:11:17;24.85;;;18.40;;
32760;SDS011;19126;47.472;7.850;2022-08-19T00:13:45;21.52;;;17.25;;
32760;SDS011;19126;47.472;7.850;2022-08-19T00:16:13;27.75;;;17.23;;
32760;SDS011;19126;47.472;7.850;2022-08-19T00:18:42;21.73;;;17.48;;
32760;SDS011;19126;47.472;7.850;2022-08-19T00:21:09;24.95;;;16.08;;
32760;SDS011;19126;47.472;7.850;2022-08-19T00:23:36;20.65;;;15.32;;
32760;SDS011;19126;47.472;7.850;2022-08-19T00:26:04;19.63;;;15.27;;
32760;SDS011;19126;47.472;7.850;2022-08-19T00:28:32;17.33;;;14.23;;
32760;SDS011;19126;47.472;7.850;2022-08-19T00:31:01;23.98;;;15.45;;
32760;SDS011;19126;47.472;7.850;2022-08-19T00:33:29;15.75;;;14.15;;
32760;SDS011;19126;47.472;7.850;2022-08-19T00:35:58;20.60;;;15.20;;
32760;SDS011;19126;47.472;7.850;2022-08-19T00:38:26;18.63;;;15.55;;
32760;SDS011;19126;47.472;7.850;2022-08-19T00:40:53;30.38;;;16.25;;
32760;SDS011;19126;47.472;7.850;2022-08-19T00:43:21;25.42;;;15.10;;
32760;SDS011;19126;47.472;7.850;2022-08-19T00:45:51;18.33;;;15.13;;
32760;SDS011;19126;47.472;7.850;2022-08-19T00:48:18;19.63;;;17.17;;
32760;SDS011;19126;47.472;7.850;2022-08-19T00:50:47;24.92;;;15.60;;
32760;SDS011;19126;47.472;7.850;2022-08-19T00:53:20;18.75;;;15.25;;
32760;SDS011;19126;47.472;7.850;2022-08-19T00:55:52;19.15;;;14.15;;
32760;SDS011;19126;47.472;7.850;2022-08-19T00:58:28;16.85;;;14.00;;
32760;SDS011;19126;47.472;7.850;2022-08-19T01:00:58;17.25;;;14.35;;
32760;SDS011;19126;47.472;7.850;2022-08-19T01:03:26;16.70;;;14.98;;
32760;SDS011;19126;47.472;7.850;2022-08-19T01:05:54;19.00;;;14.80;;
32760;SDS011;19126;47.472;7.850;2022-08-19T01:08:23;19.48;;;14.15;;
32760;SDS011;19126;47.472;7.850;2022-08-19T01:10:52;17.45;;;14.10;;
32760;SDS011;19126;47.472;7.850;2022-08-19T01:13:22;17.85;;;13.27;;
32760;SDS011;19126;47.472;7.850;2022-08-19T01:15:53;13.43;;;12.02;;
32760;SDS011;19126;47.472;7.850;2022-08-19T01:18:26;13.57;;;11.18;;
32760;SDS011;19126;47.472;7.850;2022-08-19T01:20:56;18.85;;;10.68;;
32760;SDS011;19126;47.472;7.850;2022-08-19T01:23:29;16.70;;;10.02;;
32760;SDS011;19126;47.472;7.850;2022-08-19T01:26:09;12.10;;;10.45;;
32760;SDS011;19126;47.472;7.850;2022-08-19T01:28:39;11.45;;;10.20;;
32760;SDS011;19126;47.472;7.850;2022-08-19T01:31:09;16.02;;;10.57;;
32760;SDS011;19126;47.472;7.850;2022-08-19T01:33:39;12.83;;;11.10;;
32760;SDS011;19126;47.472;7.850;2022-08-19T01:36:07;13.10;;;10.98;;
32760;SDS011;19126;47.472;7.850;2022-08-19T01:38:40;18.13;;;14.38;;
32760;SDS011;19126;47.472;7.850;2022-08-19T01:41:10;17.08;;;12.80;;
32760;SDS011;19126;47.472;7.850;2022-08-19T01:43:38;18.27;;;12.90;;
32760;SDS011;19126;47.472;7.850;2022-08-19T01:46:06;18.35;;;14.02;;
32760;SDS011;19126;47.472;7.850;2022-08-19T01:48:34;25.17;;;14.80;;
32760;SDS011;19126;47.472;7.850;2022-08-19T01:51:03;17.48;;;14.07;;
32760;SDS011;19126;47.472;7.850;2022-08-19T01:53:31;15.77;;;13.85;;
32760;SDS011;19126;47.472;7.850;2022-08-19T01:56:01;17.60;;;13.43;;
32760;SDS011;19126;47.472;7.850;2022-08-19T01:58:30;15.38;;;12.50;;
32760;SDS011;19126;47.472;7.850;2022-08-19T02:01:04;14.80;;;12.15;;
32760;SDS011;19126;47.472;7.850;2022-08-19T02:03:32;20.73;;;11.57;;
32760;SDS011;19126;47.472;7.850;2022-08-19T02:06:01;17.48;;;10.13;;
32760;SDS011;19126;47.472;7.850;2022-08-19T02:08:30;13.95;;;10.95;;
32760;SDS011;19126;47.472;7.850;2022-08-19T02:11:02;12.45;;;9.90;;
32760;SDS011;19126;47.472;7.850;2022-08-19T02:13:30;13.98;;;10.20;;
32760;SDS011;19126;47.472;7.850;2022-08-19T02:15:57;12.80;;;10.38;;
32760;SDS011;19126;47.472;7.850;2022-08-19T02:18:25;19.05;;;10.57;;
32760;SDS011;19126;47.472;7.850;2022-08-19T02:20:53;17.38;;;9.43;;
32760;SDS011;19126;47.472;7.850;2022-08-19T02:23:20;13.20;;;9.52;;
32760;SDS011;19126;47.472;7.850;2022-08-19T02:25:47;13.88;;;9.52;;
32760;SDS011;19126;47.472;7.850;2022-08-19T02:28:16;14.35;;;10.20;;
32760;SDS011;19126;47.472;7.850;2022-08-19T02:30:43;13.18;;;9.68;;
32760;SDS011;19126;47.472;7.850;2022-08-19T02:33:12;12.85;;;9.48;;
32760;SDS011;19126;47.472;7.850;2022-08-19T02:35:40;11.35;;;9.68;;
32760;SDS011;19126;47.472;7.850;2022-08-19T02:38:08;10.27;;;9.27;;
32760;SDS011;19126;47.472;7.850;2022-08-19T02:40:55;11.40;;;10.20;;
32760;SDS011;19126;47.472;7.850;2022-08-19T02:43:26;14.65;;;9.77;;
32760;SDS011;19126;47.472;7.850;2022-08-19T02:45:55;12.63;;;9.18;;
32760;SDS011;19126;47.472;7.850;2022-08-19T02:48:22;11.18;;;9.75;;
32760;SDS011;19126;47.472;7.850;2022-08-19T02:50:52;10.98;;;9.40;;
32760;SDS011;19126;47.472;7.850;2022-08-19T02:53:21;13.82;;;9.98;;
32760;SDS011;19126;47.472;7.850;2022-08-19T02:55:49;18.27;;;10.73;;
32760;SDS011;19126;47.472;7.850;2022-08-19T02:58:18;16.15;;;10.57;;
32760;SDS011;19126;47.472;7.850;2022-08-19T03:00:49;16.15;;;11.70;;
32760;SDS011;19126;47.472;7.850;2022-08-19T03:03:19;12.98;;;9.68;;
32760;SDS011;19126;47.472;7.850;2022-08-19T03:05:46;19.63;;;11.68;;
32760;SDS011;19126;47.472;7.850;2022-08-19T03:08:14;17.35;;;12.23;;
32760;SDS011;19126;47.472;7.850;2022-08-19T03:10:42;15.73;;;12.57;;
32760;SDS011;19126;47.472;7.850;2022-08-19T03:13:12;19.80;;;12.00;;
32760;SDS011;19126;47.472;7.850;2022-08-19T03:15:41;15.10;;;12.43;;
32760;SDS011;19126;47.472;7.850;2022-08-19T03:18:11;16.45;;;12.40;;
32760;SDS011;19126;47.472;7.850;2022-08-19T03:20:41;15.35;;;13.02;;
32760;SDS011;19126;47.472;7.850;2022-08-19T03:23:09;18.98;;;12.13;;
32760;SDS011;19126;47.472;7.850;2022-08-19T03:25:38;19.70;;;13.00;;
32760;SDS011;19126;47.472;7.850;2022-08-19T03:28:08;16.85;;;13.50;;
32760;SDS011;19126;47.472;7.850;2022-08-19T03:30:37;15.38;;;13.40;;
32760;SDS011;19126;47.472;7.850;2022-08-19T03:33:05;18.30;;;13.20;;
32760;SDS011;19126;47.472;7.850;2022-08-19T03:35:35;15.02;;;13.40;;
32760;SDS011;19126;47.472;7.850;2022-08-19T03:38:02;20.17;;;13.75;;
32760;SDS011;19126;47.472;7.850;2022-08-19T03:40:29;20.33;;;14.18;;
32760;SDS011;19126;47.472;7.850;2022-08-19T03:42:57;14.82;;;13.18;;
32760;SDS011;19126;47.472;7.850;2022-08-19T03:45:24;16.35;;;13.30;;
32760;SDS011;19126;47.472;7.850;2022-08-19T03:47:52;17.00;;;12.50;;
32760;SDS011;19126;47.472;7.850;2022-08-19T03:50:19;15.60;;;13.20;;
32760;SDS011;19126;47.472;7.850;2022-08-19T03:52:49;17.33;;;13.25;;
32760;SDS011;19126;47.472;7.850;2022-08-19T03:55:17;17.92;;;15.80;;
32760;SDS011;19126;47.472;7.850;2022-08-19T03:57:45;20.15;;;16.42;;
32760;SDS011;19126;47.472;7.850;2022-08-19T04:00:14;18.92;;;16.13;;
32760;SDS011;19126;47.472;7.850;2022-08-19T04:02:42;26.38;;;17.33;;
32760;SDS011;19126;47.472;7.850;2022-08-19T04:05:10;25.00;;;17.13;;
32760;SDS011;19126;47.472;7.850;2022-08-19T04:07:39;21.00;;;15.90;;
32760;SDS011;19126;47.472;7.850;2022-08-19T04:10:07;25.20;;;15.90;;
32760;SDS011;19126;47.472;7.850;2022-08-19T04:12:35;20.70;;;16.23;;
32760;SDS011;19126;47.472;7.850;2022-08-19T04:15:03;20.83;;;15.85;;
32760;SDS011;19126;47.472;7.850;2022-08-19T04:17:31;32.03;;;16.73;;
32760;SDS011;19126;47.472;7.850;2022-08-19T04:19:58;27.15;;;16.17;;
32760;SDS011;19126;47.472;7.850;2022-08-19T04:22:26;23.25;;;16.20;;
32760;SDS011;19126;47.472;7.850;2022-08-19T04:24:53;24.63;;;16.25;;
32760;SDS011;19126;47.472;7.850;2022-08-19T04:27:21;20.90;;;16.60;;
32760;SDS011;19126;47.472;7.850;2022-08-19T04:29:49;19.65;;;15.35;;
32760;SDS011;19126;47.472;7.850;2022-08-19T04:32:17;19.92;;;15.98;;
32760;SDS011;19126;47.472;7.850;2022-08-19T04:34:44;16.25;;;12.27;;
32760;SDS011;19126;47.472;7.850;2022-08-19T04:37:12;17.00;;;11.23;;
32760;SDS011;19126;47.472;7.850;2022-08-19T04:39:39;23.95;;;14.60;;
32760;SDS011;19126;47.472;7.850;2022-08-19T04:42:25;16.27;;;11.15;;
32760;SDS011;19126;47.472;7.850;2022-08-19T04:45:04;12.18;;;9.60;;
32760;SDS011;19126;47.472;7.850;2022-08-19T04:47:35;15.70;;;9.50;;
32760;SDS011;19126;47.472;7.850;2022-08-19T04:50:03;10.23;;;9.02;;
32760;SDS011;19126;47.472;7.850;2022-08-19T04:52:31;18.52;;;9.52;;
32760;SDS011;19126;47.472;7.850;2022-08-19T04:54:58;10.70;;;9.02;;
32760;SDS011;19126;47.472;7.850;2022-08-19T04:57:27;13.60;;;9.93;;
32760;SDS011;19126;47.472;7.850;2022-08-19T04:59:54;12.50;;;9.70;;
32760;SDS011;19126;47.472;7.850;2022-08-19T05:02:22;12.15;;;10.38;;
32760;SDS011;19126;47.472;7.850;2022-08-19T05:04:50;16.88;;;10.32;;
32760;SDS011;19126;47.472;7.850;2022-08-19T05:07:17;19.00;;;11.30;;
32760;SDS011;19126;47.472;7.850;2022-08-19T05:09:44;15.80;;;10.48;;
32760;SDS011;19126;47.472;7.850;2022-08-19T05:12:12;15.18;;;11.90;;
32760;SDS011;19126;47.472;7.850;2022-08-19T05:14:40;15.90;;;12.23;;
32760;SDS011;19126;47.472;7.850;2022-08-19T05:17:07;17.52;;;13.57;;
32760;SDS011;19126;47.472;7.850;2022-08-19T05:19:34;17.88;;;13.90;;
32760;SDS011;19126;47.472;7.850;2022-08-19T05:22:19;16.15;;;14.32;;
32760;SDS011;19126;47.472;7.850;2022-08-19T05:24:59;18.30;;;14.68;;
32760;SDS011;19126;47.472;7.850;2022-08-19T05:27:34;15.15;;;11.85;;
32760;SDS011;19126;47.472;7.850;2022-08-19T05:30:04;16.17;;;13.57;;
32760;SDS011;19126;47.472;7.850;2022-08-19T05:32:32;16.70;;;13.77;;
32760;SDS011;19126;47.472;7.850;2022-08-19T05:34:59;16.60;;;13.80;;
32760;SDS011;19126;47.472;7.850;2022-08-19T05:37:27;24.10;;;13.35;;
32760;SDS011;19126;47.472;7.850;2022-08-19T05:39:54;13.77;;;12.02;;
32760;SDS011;19126;47.472;7.850;2022-08-19T05:42:22;16.45;;;13.88;;
32760;SDS011;19126;47.472;7.850;2022-08-19T05:44:51;16.23;;;13.38;;
32760;SDS011;19126;47.472;7.850;2022-08-19T05:47:20;14.85;;;10.95;;
32760;SDS011;19126;47.472;7.850;2022-08-19T05:49:48;14.50;;;10.40;;
32760;SDS011;19126;47.472;7.850;2022-08-19T05:52:15;18.77;;;10.80;;
32760;SDS011;19126;47.472;7.850;2022-08-19T05:54:43;11.55;;;10.35;;
32760;SDS011;19126;47.472;7.850;2022-08-19T05:57:12;12.93;;;11.38;;
32760;SDS011;19126;47.472;7.850;2022-08-19T05:59:40;15.07;;;10.38;;
32760;SDS011;19126;47.472;7.850;2022-08-19T06:02:08;15.70;;;10.07;;
32760;SDS011;19126;47.472;7.850;2022-08-19T06:04:37;17.63;;;10.70;;
32760;SDS011;19126;47.472;7.850;2022-08-19T06:07:07;19.50;;;11.77;;
32760;SDS011;19126;47.472;7.850;2022-08-19T06:09:34;19.05;;;12.00;;
32760;SDS011;19126;47.472;7.850;2022-08-19T06:12:02;13.27;;;11.10;;
32760;SDS011;19126;47.472;7.850;2022-08-19T06:14:31;19.67;;;11.10;;
32760;SDS011;19126;47.472;7.850;2022-08-19T06:17:00;16.70;;;13.13;;
32760;SDS011;19126;47.472;7.850;2022-08-19T06:19:28;16.80;;;12.48;;
32760;SDS011;19126;47.472;7.850;2022-08-19T06:21:58;16.70;;;14.10;;
32760;SDS011;19126;47.472;7.850;2022-08-19T06:24:26;20.02;;;14.32;;
32760;SDS011;19126;47.472;7.850;2022-08-19T06:26:57;20.17;;;13.45;;
32760;SDS011;19126;47.472;7.850;2022-08-19T06:29:28;16.45;;;13.55;;
32760;SDS011;19126;47.472;7.850;2022-08-19T06:31:57;15.90;;;13.80;;
32760;SDS011;19126;47.472;7.850;2022-08-19T06:34:27;17.38;;;13.35;;
32760;SDS011;19126;47.472;7.850;2022-08-19T06:36:58;19.00;;;14.65;;
32760;SDS011;19126;47.472;7.850;2022-08-19T06:39:29;16.45;;;13.85;;
32760;SDS011;19126;47.472;7.850;2022-08-19T06:42:00;14.63;;;13.00;;
32760;SDS011;19126;47.472;7.850;2022-08-19T06:44:31;16.58;;;13.32;;
32760;SDS011;19126;47.472;7.850;2022-08-19T06:47:02;16.05;;;13.45;;
32760;SDS011;19126;47.472;7.850;2022-08-19T06:49:32;19.10;;;16.35;;
32760;SDS011;19126;47.472;7.850;2022-08-19T06:52:02;20.17;;;16.23;;
32760;SDS011;19126;47.472;7.850;2022-08-19T06:54:30;20.83;;;14.82;;
32760;SDS011;19126;47.472;7.850;2022-08-19T06:56:58;23.77;;;15.35;;
32760;SDS011;19126;47.472;7.850;2022-08-19T06:59:28;17.23;;;13.25;;
32760;SDS011;19126;47.472;7.850;2022-08-19T07:01:57;20.52;;;14.25;;
32760;SDS011;19126;47.472;7.850;2022-08-19T07:04:28;17.17;;;14.80;;
32760;SDS011;19126;47.472;7.850;2022-08-19T07:06:57;18.25;;;14.23;;
32760;SDS011;19126;47.472;7.850;2022-08-19T07:09:27;18.50;;;14.38;;
32760;SDS011;19126;47.472;7.850;2022-08-19T07:11:54;18.60;;;14.70;;
32760;SDS011;19126;47.472;7.850;2022-08-19T07:14:22;19.20;;;15.15;;
32760;SDS011;19126;47.472;7.850;2022-08-19T07:16:53;19.75;;;15.85;;
32760;SDS011;19126;47.472;7.850;2022-08-19T07:19:23;17.17;;;15.02;;
32760;SDS011;19126;47.472;7.850;2022-08-19T07:21:52;22.35;;;16.33;;
32760;SDS011;19126;47.472;7.850;2022-08-19T07:24:22;19.20;;;17.05;;
32760;SDS011;19126;47.472;7.850;2022-08-19T07:26:54;23.10;;;17.73;;
32760;SDS011;19126;47.472;7.850;2022-08-19T07:29:25;24.48;;;18.35;;
32760;SDS011;19126;47.472;7.850;2022-08-19T07:31:53;22.92;;;16.38;;
32760;SDS011;19126;47.472;7.850;2022-08-19T07:34:23;26.65;;;18.02;;
32760;SDS011;19126;47.472;7.850;2022-08-19T07:36:53;22.42;;;17.13;;
32760;SDS011;19126;47.472;7.850;2022-08-19T07:39:22;24.75;;;17.05;;
32760;SDS011;19126;47.472;7.850;2022-08-19T07:41:54;23.27;;;16.90;;
32760;SDS011;19126;47.472;7.850;2022-08-19T07:44:24;27.08;;;19.63;;
32760;SDS011;19126;47.472;7.850;2022-08-19T07:46:52;26.15;;;20.15;;
32760;SDS011;19126;47.472;7.850;2022-08-19T07:49:22;24.70;;;20.38;;
32760;SDS011;19126;47.472;7.850;2022-08-19T07:51:51;27.95;;;20.08;;
32760;SDS011;19126;47.472;7.850;2022-08-19T07:54:21;26.60;;;20.83;;
32760;SDS011;19126;47.472;7.850;2022-08-19T07:56:50;22.88;;;20.40;;
32760;SDS011;19126;47.472;7.850;2022-08-19T07:59:19;24.60;;;21.17;;
32760;SDS011;19126;47.472;7.850;2022-08-19T08:01:47;23.15;;;19.52;;
32760;SDS011;19126;47.472;7.850;2022-08-19T08:04:16;23.70;;;20.50;;
32760;SDS011;19126;47.472;7.850;2022-08-19T08:07:01;28.90;;;19.40;;
32760;SDS011;19126;47.472;7.850;2022-08-19T08:09:47;24.35;;;19.25;;
32760;SDS011;19126;47.472;7.850;2022-08-19T08:12:17;29.92;;;20.67;;
32760;SDS011;19126;47.472;7.850;2022-08-19T08:14:52;24.73;;;20.33;;
32760;SDS011;19126;47.472;7.850;2022-08-19T08:17:24;26.08;;;19.30;;
32760;SDS011;19126;47.472;7.850;2022-08-19T08:19:54;22.98;;;19.77;;
32760;SDS011;19126;47.472;7.850;2022-08-19T08:22:22;23.70;;;20.13;;
32760;SDS011;19126;47.472;7.850;2022-08-19T08:25:08;26.55;;;20.70;;
32760;SDS011;19126;47.472;7.850;2022-08-19T08:27:40;28.67;;;22.55;;
32760;SDS011;19126;47.472;7.850;2022-08-19T08:30:13;34.95;;;21.60;;
32760;SDS011;19126;47.472;7.850;2022-08-19T08:32:48;27.65;;;22.88;;
32760;SDS011;19126;47.472;7.850;2022-08-19T08:35:17;27.92;;;23.30;;
32760;SDS011;19126;47.472;7.850;2022-08-19T08:37:47;27.63;;;22.42;;
32760;SDS011;19126;47.472;7.850;2022-08-19T08:40:18;29.90;;;24.20;;
32760;SDS011;19126;47.472;7.850;2022-08-19T08:42:50;28.92;;;22.30;;
32760;SDS011;19126;47.472;7.850;2022-08-19T08:45:27;25.05;;;20.23;;
32760;SDS011;19126;47.472;7.850;2022-08-19T08:47:57;30.37;;;21.77;;
32760;SDS011;19126;47.472;7.850;2022-08-19T08:50:33;27.75;;;20.85;;
32760;SDS011;19126;47.472;7.850;2022-08-19T08:53:06;28.52;;;21.67;;
32760;SDS011;19126;47.472;7.850;2022-08-19T08:55:34;32.30;;;22.67;;
32760;SDS011;19126;47.472;7.850;2022-08-19T08:58:03;25.77;;;20.40;;
32760;SDS011;19126;47.472;7.850;2022-08-19T09:00:41;32.30;;;23.90;;
32760;SDS011;19126;47.472;7.850;2022-08-19T09:03:15;31.45;;;23.20;;
32760;SDS011;19126;47.472;7.850;2022-08-19T09:05:48;31.88;;;23.17;;
32760;SDS011;19126;47.472;7.850;2022-08-19T09:08:28;30.02;;;22.45;;
32760;SDS011;19126;47.472;7.850;2022-08-19T09:11:10;28.65;;;23.00;;
32760;SDS011;19126;47.472;7.850;2022-08-19T09:13:49;35.97;;;24.08;;
32760;SDS011;19126;47.472;7.850;2022-08-19T09:16:34;39.70;;;24.83;;
32760;SDS011;19126;47.472;7.850;2022-08-19T09:19:06;31.98;;;25.95;;
32760;SDS011;19126;47.472;7.850;2022-08-19T09:21:35;29.58;;;22.98;;
32760;SDS011;19126;47.472;7.850;2022-08-19T09:24:03;31.77;;;22.92;;
32760;SDS011;19126;47.472;7.850;2022-08-19T09:26:32;33.40;;;23.52;;
32760;SDS011;19126;47.472;7.850;2022-08-19T09:29:00;28.73;;;23.75;;
32760;SDS011;19126;47.472;7.850;2022-08-19T09:31:30;28.70;;;21.23;;
32760;SDS011;19126;47.472;7.850;2022-08-19T09:33:59;34.75;;;24.42;;
32760;SDS011;19126;47.472;7.850;2022-08-19T09:36:29;32.45;;;23.10;;
32760;SDS011;19126;47.472;7.850;2022-08-19T09:39:01;32.03;;;24.20;;
32760;SDS011;19126;47.472;7.850;2022-08-19T09:41:29;32.97;;;25.27;;
32760;SDS011;19126;47.472;7.850;2022-08-19T09:43:57;29.50;;;23.45;;
32760;SDS011;19126;47.472;7.850;2022-08-19T09:46:26;31.38;;;23.98;;
32760;SDS011;19126;47.472;7.850;2022-08-19T09:48:57;38.03;;;26.75;;
32760;SDS011;19126;47.472;7.850;2022-08-19T09:51:26;36.97;;;27.00;;
32760;SDS011;19126;47.472;7.850;2022-08-19T09:53:54;45.05;;;27.63;;
32760;SDS011;19126;47.472;7.850;2022-08-19T09:56:26;36.78;;;28.15;;
32760;SDS011;19126;47.472;7.850;2022-08-19T09:58:53;35.85;;;26.73;;
32760;SDS011;19126;47.472;7.850;2022-08-19T10:01:21;37.42;;;26.35;;
32760;SDS011;19126;47.472;7.850;2022-08-19T10:03:51;34.08;;;25.90;;
32760;SDS011;19126;47.472;7.850;2022-08-19T10:06:22;33.35;;;25.58;;
32760;SDS011;19126;47.472;7.850;2022-08-19T10:08:55;37.97;;;26.70;;
32760;SDS011;19126;47.472;7.850;2022-08-19T10:11:23;34.47;;;26.92;;
32760;SDS011;19126;47.472;7.850;2022-08-19T10:13:51;31.60;;;26.75;;
32760;SDS011;19126;47.472;7.850;2022-08-19T10:16:20;36.60;;;27.63;;
32760;SDS011;19126;47.472;7.850;2022-08-19T10:18:50;42.03;;;28.15;;
32760;SDS011;19126;47.472;7.850;2022-08-19T10:21:20;38.45;;;30.02;;
32760;SDS011;19126;47.472;7.850;2022-08-19T10:23:52;43.15;;;29.02;;
32760;SDS011;19126;47.472;7.850;2022-08-19T10:26:23;43.20;;;28.80;;
32760;SDS011;19126;47.472;7.850;2022-08-19T10:28:53;36.92;;;29.13;;
32760;SDS011;19126;47.472;7.850;2022-08-19T10:31:22;36.58;;;27.92;;
32760;SDS011;19126;47.472;7.850;2022-08-19T10:33:51;38.63;;;28.43;;
32760;SDS011;19126;47.472;7.850;2022-08-19T10:36:25;39.55;;;29.08;;
32760;SDS011;19126;47.472;7.850;2022-08-19T10:38:56;37.38;;;28.48;;
32760;SDS011;19126;47.472;7.850;2022-08-19T10:41:28;38.05;;;29.25;;
32760;SDS011;19126;47.472;7.850;2022-08-19T10:43:58;37.80;;;28.37;;
32760;SDS011;19126;47.472;7.850;2022-08-19T10:46:30;36.30;;;27.30;;
32760;SDS011;19126;47.472;7.850;2022-08-19T10:48:59;34.55;;;28.95;;
32760;SDS011;19126;47.472;7.850;2022-08-19T10:51:29;36.00;;;28.63;;
32760;SDS011;19126;47.472;7.850;2022-08-19T10:54:14;38.55;;;30.42;;
32760;SDS011;19126;47.472;7.850;2022-08-19T10:56:42;38.95;;;27.92;;
32760;SDS011;19126;47.472;7.850;2022-08-19T10:59:18;42.08;;;31.38;;
32760;SDS011;19126;47.472;7.850;2022-08-19T11:01:48;42.50;;;32.60;;
32760;SDS011;19126;47.472;7.850;2022-08-19T11:04:17;41.03;;;30.98;;
32760;SDS011;19126;47.472;7.850;2022-08-19T11:06:47;41.53;;;30.23;;
32760;SDS011;19126;47.472;7.850;2022-08-19T11:09:15;40.58;;;31.80;;
32760;SDS011;19126;47.472;7.850;2022-08-19T11:11:49;49.45;;;30.95;;
32760;SDS011;19126;47.472;7.850;2022-08-19T11:14:18;40.67;;;31.08;;
32760;SDS011;19126;47.472;7.850;2022-08-19T11:16:47;37.17;;;30.67;;
32760;SDS011;19126;47.472;7.850;2022-08-19T11:19:15;46.83;;;31.92;;
32760;SDS011;19126;47.472;7.850;2022-08-19T11:21:47;49.47;;;35.17;;
32760;SDS011;19126;47.472;7.850;2022-08-19T11:24:15;46.22;;;34.28;;
32760;SDS011;19126;47.472;7.850;2022-08-19T11:26:45;45.67;;;33.15;;
32760;SDS011;19126;47.472;7.850;2022-08-19T11:29:16;54.97;;;35.92;;
32760;SDS011;19126;47.472;7.850;2022-08-19T11:31:46;43.88;;;32.88;;
32760;SDS011;19126;47.472;7.850;2022-08-19T11:34:16;41.53;;;32.40;;
32760;SDS011;19126;47.472;7.850;2022-08-19T11:36:47;46.75;;;32.92;;
32760;SDS011;19126;47.472;7.850;2022-08-19T11:39:17;43.10;;;30.80;;
32760;SDS011;19126;47.472;7.850;2022-08-19T11:41:48;42.40;;;32.30;;
32760;SDS011;19126;47.472;7.850;2022-08-19T11:44:15;40.63;;;31.30;;
32760;SDS011;19126;47.472;7.850;2022-08-19T11:46:42;42.45;;;30.00;;
32760;SDS011;19126;47.472;7.850;2022-08-19T11:49:11;43.33;;;32.33;;
32760;SDS011;19126;47.472;7.850;2022-08-19T11:51:39;48.53;;;32.83;;
32760;SDS011;19126;47.472;7.850;2022-08-19T11:54:09;43.47;;;33.20;;
32760;SDS011;19126;47.472;7.850;2022-08-19T11:56:38;43.80;;;34.28;;
32760;SDS011;19126;47.472;7.850;2022-08-19T11:59:06;44.72;;;32.78;;
32760;SDS011;19126;47.472;7.850;2022-08-19T12:01:33;45.03;;;34.20;;
32760;SDS011;19126;47.472;7.850;2022-08-19T12:04:00;47.70;;;33.42;;
32760;SDS011;19126;47.472;7.850;2022-08-19T12:06:30;47.13;;;33.58;;
32760;SDS011;19126;47.472;7.850;2022-08-19T12:09:00;54.38;;;35.15;;
32760;SDS011;19126;47.472;7.850;2022-08-19T12:11:31;45.00;;;33.25;;
32760;SDS011;19126;47.472;7.850;2022-08-19T12:13:58;52.25;;;35.22;;
32760;SDS011;19126;47.472;7.850;2022-08-19T12:16:26;51.28;;;33.83;;
32760;SDS011;19126;47.472;7.850;2022-08-19T12:18:56;47.45;;;34.95;;
32760;SDS011;19126;47.472;7.850;2022-08-19T12:21:28;51.95;;;36.78;;
32760;SDS011;19126;47.472;7.850;2022-08-19T12:23:57;51.60;;;37.13;;
32760;SDS011;19126;47.472;7.850;2022-08-19T12:26:26;52.60;;;37.70;;
32760;SDS011;19126;47.472;7.850;2022-08-19T12:28:57;52.63;;;35.90;;
32760;SDS011;19126;47.472;7.850;2022-08-19T12:31:25;54.42;;;37.95;;
32760;SDS011;19126;47.472;7.850;2022-08-19T12:33:53;44.72;;;33.50;;
32760;SDS011;19126;47.472;7.850;2022-08-19T12:36:20;45.65;;;35.13;;
32760;SDS011;19126;47.472;7.850;2022-08-19T12:38:48;51.65;;;35.63;;
32760;SDS011;19126;47.472;7.850;2022-08-19T12:41:16;50.78;;;33.83;;
32760;SDS011;19126;47.472;7.850;2022-08-19T12:43:46;45.83;;;34.30;;
32760;SDS011;19126;47.472;7.850;2022-08-19T12:46:15;48.47;;;35.78;;
32760;SDS011;19126;47.472;7.850;2022-08-19T12:48:43;46.63;;;35.10;;
32760;SDS011;19126;47.472;7.850;2022-08-19T12:51:12;44.70;;;32.58;;
32760;SDS011;19126;47.472;7.850;2022-08-19T12:53:41;46.13;;;33.78;;
32760;SDS011;19126;47.472;7.850;2022-08-19T12:56:09;49.22;;;34.85;;
32760;SDS011;19126;47.472;7.850;2022-08-19T12:58:39;44.75;;;34.17;;
32760;SDS011;19126;47.472;7.850;2022-08-19T13:01:07;47.55;;;35.30;;
32760;SDS011;19126;47.472;7.850;2022-08-19T13:03:38;47.42;;;34.28;;
32760;SDS011;19126;47.472;7.850;2022-08-19T13:06:06;49.17;;;34.30;;
32760;SDS011;19126;47.472;7.850;2022-08-19T13:08:34;47.40;;;35.78;;
32760;SDS011;19126;47.472;7.850;2022-08-19T13:11:06;44.42;;;35.22;;
32760;SDS011;19126;47.472;7.850;2022-08-19T13:13:37;47.60;;;35.15;;
32760;SDS011;19126;47.472;7.850;2022-08-19T13:16:06;50.78;;;37.88;;
32760;SDS011;19126;47.472;7.850;2022-08-19T13:18:36;54.13;;;37.95;;
32760;SDS011;19126;47.472;7.850;2022-08-19T13:21:07;52.45;;;38.83;;
32760;SDS011;19126;47.472;7.850;2022-08-19T13:23:36;55.22;;;37.95;;
32760;SDS011;19126;47.472;7.850;2022-08-19T13:26:04;51.90;;;38.30;;
32760;SDS011;19126;47.472;7.850;2022-08-19T13:28:33;52.13;;;37.95;;
32760;SDS011;19126;47.472;7.850;2022-08-19T13:31:19;51.67;;;37.63;;
32760;SDS011;19126;47.472;7.850;2022-08-19T13:34:08;50.88;;;38.47;;
32760;SDS011;19126;47.472;7.850;2022-08-19T13:36:35;54.58;;;38.67;;
32760;SDS011;19126;47.472;7.850;2022-08-19T13:39:04;58.30;;;37.53;;
32760;SDS011;19126;47.472;7.850;2022-08-19T13:41:33;58.65;;;37.10;;
32760;SDS011;19126;47.472;7.850;2022-08-19T13:44:01;47.47;;;34.13;;
32760;SDS011;19126;47.472;7.850;2022-08-19T13:46:29;53.05;;;36.28;;
32760;SDS011;19126;47.472;7.850;2022-08-19T13:48:56;50.70;;;37.38;;
32760;SDS011;19126;47.472;7.850;2022-08-19T13:51:25;63.05;;;40.45;;
32760;SDS011;19126;47.472;7.850;2022-08-19T13:53:52;54.22;;;39.65;;
32760;SDS011;19126;47.472;7.850;2022-08-19T13:56:20;54.45;;;39.53;;
32760;SDS011;19126;47.472;7.850;2022-08-19T13:58:47;56.30;;;40.45;;
32760;SDS011;19126;47.472;7.850;2022-08-19T14:01:18;53.75;;;39.58;;
32760;SDS011;19126;47.472;7.850;2022-08-19T14:03:46;56.08;;;37.83;;
32760;SDS011;19126;47.472;7.850;2022-08-19T14:06:14;51.58;;;37.75;;
32760;SDS011;19126;47.472;7.850;2022-08-19T14:08:43;58.47;;;42.08;;
32760;SDS011;19126;47.472;7.850;2022-08-19T14:11:10;61.95;;;41.80;;
32760;SDS011;19126;47.472;7.850;2022-08-19T14:13:38;50.40;;;40.30;;
32760;SDS011;19126;47.472;7.850;2022-08-19T14:16:06;61.72;;;42.67;;
32760;SDS011;19126;47.472;7.850;2022-08-19T14:18:34;55.22;;;42.45;;
32760;SDS011;19126;47.472;7.850;2022-08-19T14:21:03;51.38;;;39.50;;
32760;SDS011;19126;47.472;7.850;2022-08-19T14:23:31;61.00;;;43.20;;
32760;SDS011;19126;47.472;7.850;2022-08-19T14:26:06;57.45;;;44.38;;
32760;SDS011;19126;47.472;7.850;2022-08-19T14:28:36;57.85;;;43.38;;
32760;SDS011;19126;47.472;7.850;2022-08-19T14:31:05;53.45;;;40.63;;
32760;SDS011;19126;47.472;7.850;2022-08-19T14:33:33;58.63;;;42.88;;
32760;SDS011;19126;47.472;7.850;2022-08-19T14:36:01;56.83;;;40.30;;
32760;SDS011;19126;47.472;7.850;2022-08-19T14:38:29;53.03;;;42.55;;
32760;SDS011;19126;47.472;7.850;2022-08-19T14:41:07;58.28;;;42.90;;